createdAt,value
2023-02-03T00:01:23.820Z,97433.14
2023-02-03T00:03:51.967Z,97435.00
2023-02-03T00:06:20.360Z,97441.01
2023-02-03T00:08:49.373Z,97442.81
2023-02-03T00:11:17.423Z,97443.56
2023-02-03T00:13:45.530Z,97447.67
2023-02-03T00:16:13.728Z,97456.54
2023-02-03T00:18:41.855Z,97456.17
2023-02-03T00:21:10.330Z,97457.39
2023-02-03T00:23:38.398Z,97464.86
2023-02-03T00:26:08.857Z,97469.16
2023-02-03T00:28:38.313Z,97472.73
2023-02-03T00:31:07.206Z,97474.96
2023-02-03T00:33:35.285Z,97481.23
2023-02-03T00:36:07.358Z,97483.30
2023-02-03T00:38:35.444Z,97483.61
2023-02-03T00:41:03.810Z,97484.93
2023-02-03T00:43:31.984Z,97484.12
2023-02-03T00:46:00.454Z,97485.05
2023-02-03T00:48:28.543Z,97487.54
2023-02-03T00:50:56.723Z,97486.96
2023-02-03T00:53:25.601Z,97483.74
2023-02-03T00:55:53.580Z,97484.73
2023-02-03T00:58:22.683Z,97487.55
2023-02-03T01:00:50.881Z,97483.59
2023-02-03T01:03:19.631Z,97484.86
2023-02-03T01:05:47.809Z,97486.66
2023-02-03T01:08:16.169Z,97489.46
2023-02-03T01:10:44.302Z,97497.81
2023-02-03T01:13:12.396Z,97501.80
2023-02-03T01:15:48.185Z,97505.48
2023-02-03T01:18:16.358Z,97510.77
2023-02-03T01:20:45.681Z,97513.52
2023-02-03T01:23:13.834Z,97514.79
2023-02-03T01:25:41.905Z,97516.93
2023-02-03T01:28:10.081Z,97516.40
2023-02-03T01:30:38.422Z,97518.58
2023-02-03T01:33:06.743Z,97524.12
2023-02-03T01:35:35.530Z,97521.02
2023-02-03T01:38:04.403Z,97520.83
2023-02-03T01:40:33.267Z,97521.90
2023-02-03T01:43:01.376Z,97520.96
2023-02-03T01:45:29.768Z,97521.35
2023-02-03T01:48:00.190Z,97522.14
2023-02-03T01:50:34.624Z,97518.86
2023-02-03T01:53:07.121Z,97516.98
2023-02-03T01:55:41.129Z,97513.67
2023-02-03T01:58:16.160Z,97519.63
2023-02-03T02:00:44.869Z,97526.95
2023-02-03T02:03:13.915Z,97531.38
2023-02-03T02:05:49.359Z,97531.21
2023-02-03T02:08:22.441Z,97533.35
2023-02-03T02:10:51.242Z,97533.88
2023-02-03T02:13:21.048Z,97532.88
2023-02-03T02:16:06.791Z,97535.98
2023-02-03T02:18:47.099Z,97541.92
2023-02-03T02:21:44.870Z,97543.02
2023-02-03T02:24:31.682Z,97547.67
2023-02-03T02:27:32.212Z,97552.50
2023-02-03T02:30:09.208Z,97563.10
2023-02-03T02:32:43.512Z,97568.98
2023-02-03T02:35:11.551Z,97572.40
2023-02-03T02:38:16.197Z,97576.45
2023-02-03T02:40:53.309Z,97583.45
2023-02-03T02:43:49.627Z,97588.25
2023-02-03T02:46:40.768Z,97595.77
2023-02-03T02:49:33.254Z,97594.27
2023-02-03T02:52:05.763Z,97596.11
2023-02-03T02:54:40.052Z,97599.81
2023-02-03T02:57:12.058Z,97600.42
2023-02-03T02:59:40.060Z,97600.91
2023-02-03T03:02:11.865Z,97599.59
2023-02-03T03:04:42.121Z,97603.95
2023-02-03T03:07:18.417Z,97606.02
2023-02-03T03:09:51.187Z,97606.16
2023-02-03T03:12:29.257Z,97608.73
2023-02-03T03:15:05.434Z,97613.30
2023-02-03T03:17:37.556Z,97607.17
2023-02-03T03:20:12.842Z,97606.08
2023-02-03T03:22:47.948Z,97607.33
2023-02-03T03:25:19.724Z,97608.39
2023-02-03T03:28:02.229Z,97610.05
2023-02-03T03:30:35.376Z,97618.25
2023-02-03T03:33:05.839Z,97618.89
2023-02-03T03:36:01.766Z,97617.92
2023-02-03T03:38:50.405Z,97615.00
2023-02-03T03:41:59.369Z,97619.16
2023-02-03T03:44:35.102Z,97624.64
2023-02-03T03:47:10.955Z,97623.71
2023-02-03T03:49:43.742Z,97627.66
2023-02-03T03:52:18.890Z,97631.34
2023-02-03T03:54:48.792Z,97631.59
2023-02-03T03:57:38.872Z,97627.45
2023-02-03T04:00:10.335Z,97626.96
2023-02-03T04:02:44.853Z,97632.42
2023-02-03T04:05:14.472Z,97637.70
2023-02-03T04:07:45.103Z,97642.74
2023-02-03T04:10:33.849Z,97643.38
2023-02-03T04:13:02.263Z,97642.10
2023-02-03T04:15:30.919Z,97640.39
2023-02-03T04:18:01.412Z,97637.58
2023-02-03T04:20:31.268Z,97638.10
2023-02-03T04:22:59.854Z,97646.59
2023-02-03T04:25:27.920Z,97651.02
2023-02-03T04:27:56.267Z,97651.15
2023-02-03T04:30:24.396Z,97655.14
2023-02-03T04:32:52.627Z,97659.80
2023-02-03T04:35:20.820Z,97663.36
2023-02-03T04:37:48.867Z,97664.73
2023-02-03T04:40:17.372Z,97664.36
2023-02-03T04:42:45.384Z,97659.57
2023-02-03T04:45:13.364Z,97658.88
2023-02-03T04:47:41.381Z,97659.11
2023-02-03T04:50:09.862Z,97666.60
2023-02-03T04:52:38.118Z,97659.14
2023-02-03T04:55:06.621Z,97661.70
2023-02-03T04:57:34.887Z,97664.66
2023-02-03T05:00:03.457Z,97662.88
2023-02-03T05:02:31.389Z,97663.77
2023-02-03T05:04:59.887Z,97665.35
2023-02-03T05:07:27.907Z,97668.42
2023-02-03T05:09:55.972Z,97669.80
2023-02-03T05:12:23.952Z,97669.33
2023-02-03T05:14:51.925Z,97670.22
2023-02-03T05:17:19.984Z,97673.54
2023-02-03T05:19:47.941Z,97677.27
2023-02-03T05:22:16.517Z,97682.73
2023-02-03T05:24:44.646Z,97685.21
2023-02-03T05:27:12.899Z,97687.83
2023-02-03T05:29:40.979Z,97692.73
2023-02-03T05:32:09.476Z,97694.91
2023-02-03T05:34:37.521Z,97697.27
2023-02-03T05:37:05.635Z,97700.95
2023-02-03T05:39:33.716Z,97702.77
2023-02-03T05:42:03.390Z,97708.59
2023-02-03T05:44:31.388Z,97709.46
2023-02-03T05:47:00.030Z,97713.56
2023-02-03T05:49:28.059Z,97715.27
2023-02-03T05:51:57.195Z,97717.30
2023-02-03T05:54:25.234Z,97718.98
2023-02-03T05:56:53.545Z,97717.27
2023-02-03T05:59:21.509Z,97716.52
2023-02-03T06:01:49.791Z,97717.77
2023-02-03T06:04:17.889Z,97723.35
2023-02-03T06:06:47.813Z,97724.48
2023-02-03T06:09:15.957Z,97719.51
2023-02-03T06:11:44.046Z,97718.48
2023-02-03T06:14:12.627Z,97719.19
2023-02-03T06:16:40.728Z,97722.08
2023-02-03T06:19:08.858Z,97723.70
2023-02-03T06:21:37.333Z,97724.30
2023-02-03T06:24:05.851Z,97729.77
2023-02-03T06:26:33.833Z,97731.16
2023-02-03T06:29:01.972Z,97732.30
2023-02-03T06:31:30.074Z,97732.95
2023-02-03T06:33:59.741Z,97738.75
2023-02-03T06:36:27.767Z,97743.86
2023-02-03T06:38:56.008Z,97745.70
2023-02-03T06:41:28.770Z,97747.66
2023-02-03T06:43:57.049Z,97752.84
2023-02-03T06:46:29.836Z,97754.11
2023-02-03T06:48:58.063Z,97759.09
2023-02-03T06:51:26.274Z,97762.30
2023-02-03T06:53:54.354Z,97770.88
2023-02-03T06:56:22.339Z,97776.30
2023-02-03T06:58:50.354Z,97777.70
2023-02-03T07:01:18.760Z,97777.48
2023-02-03T07:03:47.620Z,97773.52
2023-02-03T07:06:15.673Z,97772.69
2023-02-03T07:08:44.428Z,97775.85
2023-02-03T07:11:12.596Z,97779.61
2023-02-03T07:13:40.772Z,97783.84
2023-02-03T07:16:08.918Z,97782.97
2023-02-03T07:18:46.821Z,97781.38
2023-02-03T07:21:17.141Z,97781.85
2023-02-03T07:23:49.253Z,97784.16
2023-02-03T07:26:17.927Z,97784.61
2023-02-03T07:28:46.004Z,97782.21
2023-02-03T07:31:14.504Z,97781.32
2023-02-03T07:33:42.674Z,97787.73
2023-02-03T07:36:11.801Z,97785.60
2023-02-03T07:38:40.126Z,97783.47
2023-02-03T07:41:08.202Z,97786.05
2023-02-03T07:43:36.317Z,97785.80
2023-02-03T07:46:04.650Z,97786.76
2023-02-03T07:48:32.729Z,97786.39
2023-02-03T07:51:01.053Z,97783.10
2023-02-03T07:53:29.392Z,97776.80
2023-02-03T07:56:05.261Z,97775.80
2023-02-03T07:58:34.241Z,97776.59
2023-02-03T08:01:02.401Z,97777.95
2023-02-03T08:03:30.584Z,97769.99
2023-02-03T08:05:58.647Z,97767.44
2023-02-03T08:08:26.724Z,97767.84
2023-02-03T08:10:57.929Z,97762.94
2023-02-03T08:13:26.163Z,97757.39
2023-02-03T08:15:54.692Z,97757.95
2023-02-03T08:18:22.833Z,97756.64
2023-02-03T08:20:51.285Z,97746.50
2023-02-03T08:23:19.384Z,97740.49
2023-02-03T08:25:52.232Z,97736.93
2023-02-03T08:28:20.978Z,97736.95
2023-02-03T08:30:49.325Z,97740.52
2023-02-03T08:33:17.271Z,97741.85
2023-02-03T08:35:49.740Z,97743.02
2023-02-03T08:38:17.819Z,97741.23
2023-02-03T08:40:48.871Z,97746.13
2023-02-03T08:43:16.848Z,97748.17
2023-02-03T08:45:45.152Z,97754.33
2023-02-03T08:48:13.295Z,97757.92
2023-02-03T08:50:42.804Z,97755.13
2023-02-03T08:53:11.647Z,97759.36
2023-02-03T08:55:40.478Z,97754.44
2023-02-03T08:58:08.642Z,97756.79
2023-02-03T09:00:36.711Z,97758.44
2023-02-03T09:03:05.100Z,97755.70
2023-02-03T09:05:35.215Z,97751.64
2023-02-03T09:08:04.824Z,97750.86
2023-02-03T09:10:33.003Z,97748.89
2023-02-03T09:13:01.481Z,97749.00
2023-02-03T09:15:29.447Z,97744.73
2023-02-03T09:17:58.029Z,97736.91
2023-02-03T09:20:26.645Z,97738.75
2023-02-03T09:22:55.317Z,97737.19
2023-02-03T09:25:23.299Z,97729.31
2023-02-03T09:27:51.383Z,97731.64
2023-02-03T09:30:19.614Z,97728.39
2023-02-03T09:32:54.515Z,97729.05
2023-02-03T09:35:23.137Z,97715.98
2023-02-03T09:37:51.275Z,97714.50
2023-02-03T09:40:28.969Z,97715.13
2023-02-03T09:43:13.027Z,97710.95
2023-02-03T09:45:41.557Z,97709.27
2023-02-03T09:48:20.562Z,97713.43
2023-02-03T09:50:50.165Z,97711.89
2023-02-03T09:53:45.465Z,97712.08
2023-02-03T09:56:26.936Z,97716.84
2023-02-03T09:58:55.816Z,97721.71
2023-02-03T10:01:28.498Z,97722.67
2023-02-03T10:04:10.911Z,97717.52
2023-02-03T10:06:45.899Z,97715.54
2023-02-03T10:09:20.298Z,97708.21
2023-02-03T10:12:23.438Z,97711.05
2023-02-03T10:15:20.606Z,97712.52
2023-02-03T10:17:56.770Z,97704.57
2023-02-03T10:20:39.451Z,97697.02
2023-02-03T10:23:24.899Z,97700.33
2023-02-03T10:25:57.322Z,97703.49
2023-02-03T10:28:37.384Z,97704.30
2023-02-03T10:31:21.700Z,97709.20
2023-02-03T10:34:14.944Z,97709.60
2023-02-03T10:37:03.089Z,97706.80
2023-02-03T10:39:51.231Z,97705.64
2023-02-03T10:42:20.330Z,97708.44
2023-02-03T10:45:00.073Z,97705.67
2023-02-03T10:47:41.584Z,97693.64
2023-02-03T10:50:19.471Z,97693.02
2023-02-03T10:52:48.158Z,97687.42
2023-02-03T10:55:23.048Z,97682.95
2023-02-03T10:57:55.750Z,97680.33
2023-02-03T11:00:32.956Z,97681.55
2023-02-03T11:03:21.731Z,97678.99
2023-02-03T11:06:05.379Z,97672.13
2023-02-03T11:08:36.180Z,97669.77
2023-02-03T11:11:13.248Z,97665.33
2023-02-03T11:13:41.514Z,97666.25
2023-02-03T11:16:36.430Z,97666.72
2023-02-03T11:19:11.476Z,97661.58
2023-02-03T11:21:39.550Z,97662.13
2023-02-03T11:24:31.989Z,97661.11
2023-02-03T11:27:16.337Z,97653.46
2023-02-03T11:29:48.099Z,97644.63
2023-02-03T11:32:37.473Z,97639.98
2023-02-03T11:35:15.528Z,97635.64
2023-02-03T11:37:45.897Z,97631.88
2023-02-03T11:40:18.337Z,97631.35
2023-02-03T11:42:49.608Z,97630.73
2023-02-03T11:45:17.822Z,97628.54
2023-02-03T11:47:54.691Z,97634.27
2023-02-03T11:50:46.627Z,97629.29
2023-02-03T11:53:26.774Z,97620.63
2023-02-03T11:56:17.986Z,97609.04
2023-02-03T11:58:56.924Z,97602.76
2023-02-03T12:02:05.016Z,97601.73
2023-02-03T12:05:00.470Z,97600.73
2023-02-03T12:07:56.151Z,97597.47
2023-02-03T12:10:27.519Z,97593.40
2023-02-03T12:13:07.674Z,97590.71
2023-02-03T12:15:52.440Z,97587.40
2023-02-03T12:18:32.365Z,97586.09
2023-02-03T12:21:03.348Z,97585.34
2023-02-03T12:23:41.524Z,97580.16
2023-02-03T12:26:23.615Z,97583.08
2023-02-03T12:29:17.086Z,97583.63
2023-02-03T12:31:51.933Z,97587.81
2023-02-03T12:34:41.337Z,97585.45
2023-02-03T12:37:16.540Z,97583.41
2023-02-03T12:40:16.788Z,97579.69
2023-02-03T12:43:17.694Z,97571.79
2023-02-03T12:46:02.113Z,97565.57
2023-02-03T12:48:38.610Z,97561.56
2023-02-03T12:51:12.483Z,97550.89
2023-02-03T12:53:48.280Z,97545.14
2023-02-03T12:56:22.811Z,97538.14
2023-02-03T12:58:57.558Z,97534.02
2023-02-03T13:01:36.360Z,97527.58
2023-02-03T13:04:15.603Z,97527.30
2023-02-03T13:06:48.627Z,97524.36
2023-02-03T13:09:34.558Z,97519.14
2023-02-03T13:12:32.358Z,97517.84
2023-02-03T13:15:18.309Z,97515.23
2023-02-03T13:17:50.409Z,97516.79
2023-02-03T13:20:27.532Z,97513.83
2023-02-03T13:22:56.065Z,97510.14
2023-02-03T13:25:27.091Z,97508.20
2023-02-03T13:28:35.025Z,97498.77
2023-02-03T13:31:34.681Z,97489.75
2023-02-03T13:34:08.668Z,97481.97
2023-02-03T13:36:58.580Z,97483.11
2023-02-03T13:39:36.693Z,97482.90
2023-02-03T13:42:25.383Z,97475.92
2023-02-03T13:45:16.802Z,97467.95
2023-02-03T13:47:51.338Z,97459.59
2023-02-03T13:50:45.919Z,97452.75
2023-02-03T13:53:23.628Z,97450.52
2023-02-03T13:56:02.439Z,97447.39
2023-02-03T13:58:33.861Z,97442.73
2023-02-03T14:01:35.751Z,97434.08
2023-02-03T14:04:25.820Z,97424.59
2023-02-03T14:06:53.729Z,97421.30
2023-02-03T14:09:34.687Z,97422.36
2023-02-03T14:12:15.355Z,97423.08
2023-02-03T14:14:52.643Z,97416.30
2023-02-03T14:17:35.608Z,97417.33
2023-02-03T14:20:26.967Z,97415.75
2023-02-03T14:23:01.917Z,97413.90
2023-02-03T14:25:31.385Z,97404.81
2023-02-03T14:28:06.352Z,97398.88
2023-02-03T14:31:10.587Z,97401.02
2023-02-03T14:34:05.862Z,97395.25
2023-02-03T14:36:41.699Z,97385.41
2023-02-03T14:39:18.818Z,97381.66
2023-02-03T14:42:01.923Z,97378.39
2023-02-03T14:45:00.782Z,97373.16
2023-02-03T14:47:35.032Z,97367.04
2023-02-03T14:50:09.219Z,97363.09
2023-02-03T14:52:59.056Z,97353.71
2023-02-03T14:55:34.469Z,97348.02
2023-02-03T14:58:07.234Z,97343.20
2023-02-03T15:00:35.870Z,97339.40
2023-02-03T15:03:09.089Z,97334.64
2023-02-03T15:05:42.763Z,97334.67
2023-02-03T15:08:33.408Z,97332.31
2023-02-03T15:11:24.164Z,97328.78
2023-02-03T15:13:52.765Z,97322.89
2023-02-03T15:16:23.760Z,97316.02
2023-02-03T15:19:07.477Z,97309.95
2023-02-03T15:21:42.499Z,97308.35
2023-02-03T15:24:15.840Z,97308.94
2023-02-03T15:26:49.464Z,97306.55
2023-02-03T15:29:30.434Z,97300.00
2023-02-03T15:32:29.211Z,97299.02
2023-02-03T15:34:59.355Z,97298.27
2023-02-03T15:37:51.667Z,97291.88
2023-02-03T15:40:23.423Z,97285.80
2023-02-03T15:42:54.404Z,97284.73
2023-02-03T15:46:13.268Z,97282.15
2023-02-03T15:49:07.228Z,97278.23
2023-02-03T15:51:44.892Z,97275.47
2023-02-03T15:54:30.596Z,97270.36
2023-02-03T15:57:02.272Z,97265.94
2023-02-03T15:59:34.847Z,97266.86
2023-02-03T16:02:17.021Z,97263.86
2023-02-03T16:04:45.916Z,97261.96
2023-02-03T16:07:22.005Z,97256.62
2023-02-03T16:09:54.788Z,97251.77
2023-02-03T16:12:31.227Z,97244.88
2023-02-03T16:15:02.047Z,97240.54
2023-02-03T16:17:36.826Z,97240.92
2023-02-03T16:20:10.559Z,97237.63
2023-02-03T16:22:44.762Z,97233.61
2023-02-03T16:25:21.480Z,97230.52
2023-02-03T16:28:15.208Z,97230.05
2023-02-03T16:31:12.718Z,97226.89
2023-02-03T16:34:03.765Z,97225.61
2023-02-03T16:36:50.421Z,97227.48
2023-02-03T16:39:37.600Z,97223.47
2023-02-03T16:42:32.559Z,97222.88
2023-02-03T16:45:19.403Z,97217.34
2023-02-03T16:48:06.673Z,97219.52
2023-02-03T16:50:54.161Z,97215.40
2023-02-03T16:53:25.247Z,97213.70
2023-02-03T16:55:55.780Z,97208.57
2023-02-03T16:58:24.365Z,97207.83
2023-02-03T17:00:53.600Z,97204.14
2023-02-03T17:03:24.473Z,97200.23
2023-02-03T17:05:53.133Z,97192.44
2023-02-03T17:08:23.307Z,97187.38
2023-02-03T17:10:52.038Z,97182.52
2023-02-03T17:13:22.296Z,97180.21
2023-02-03T17:15:54.850Z,97177.60
2023-02-03T17:18:23.011Z,97171.73
2023-02-03T17:20:51.369Z,97167.95
2023-02-03T17:23:19.465Z,97163.83
2023-02-03T17:25:49.974Z,97158.91
2023-02-03T17:28:18.199Z,97151.88
2023-02-03T17:30:55.174Z,97144.73
2023-02-03T17:33:23.348Z,97138.91
2023-02-03T17:36:11.881Z,97132.30
2023-02-03T17:55:18.986Z,97081.38
2023-02-03T17:57:46.927Z,97073.92
2023-02-03T18:00:15.613Z,97061.98
2023-02-03T18:02:43.857Z,97054.77
2023-02-03T18:05:11.984Z,97055.26
2023-02-03T18:07:40.002Z,97052.11
2023-02-03T18:10:09.024Z,97048.70
2023-02-03T18:12:37.126Z,97047.63
2023-02-03T18:15:05.281Z,97040.55
2023-02-03T18:17:33.642Z,97035.38
2023-02-03T18:20:03.480Z,97028.40
2023-02-03T18:22:31.683Z,97022.27
2023-02-03T18:24:59.696Z,97022.38
2023-02-03T18:27:27.764Z,97020.88
2023-02-03T18:29:55.730Z,97009.00
2023-02-03T18:32:23.704Z,97005.63
2023-02-03T18:34:51.766Z,97005.52
2023-02-03T18:37:19.737Z,96998.91
2023-02-03T18:39:47.947Z,96992.14
2023-02-03T18:42:15.834Z,96984.72
2023-02-03T18:44:44.573Z,96979.02
2023-02-03T18:47:12.558Z,96977.20
2023-02-03T18:49:40.925Z,96971.16
2023-02-03T18:52:11.093Z,96967.11
2023-02-03T18:54:40.770Z,96963.86
2023-02-03T18:57:13.051Z,96953.10
2023-02-03T18:59:41.574Z,96949.04
2023-02-03T19:02:13.057Z,96942.59
2023-02-03T19:04:41.142Z,96933.27
2023-02-03T19:07:09.316Z,96929.12
2023-02-03T19:09:38.146Z,96926.84
2023-02-03T19:12:06.489Z,96919.39
2023-02-03T19:14:35.494Z,96914.21
2023-02-03T19:17:04.539Z,96913.42
2023-02-03T19:19:32.866Z,96905.39
2023-02-03T19:22:00.944Z,96901.29
2023-02-03T19:24:29.214Z,96894.95
2023-02-03T19:26:57.101Z,96888.77
2023-02-03T19:29:25.358Z,96889.52
2023-02-03T19:31:53.984Z,96886.11
2023-02-03T19:34:22.122Z,96881.42
2023-02-03T19:36:50.290Z,96877.59
2023-02-03T19:39:21.232Z,96875.45
2023-02-03T19:41:49.477Z,96862.95
2023-02-03T19:44:17.332Z,96860.02
2023-02-03T19:46:45.531Z,96855.17
2023-02-03T19:49:15.368Z,96851.34
2023-02-03T19:51:44.564Z,96849.58
2023-02-03T19:54:13.679Z,96844.34
2023-02-03T19:56:43.271Z,96837.75
2023-02-03T19:59:11.530Z,96834.41
2023-02-03T20:01:40.186Z,96830.84
2023-02-03T20:04:11.112Z,96822.48
2023-02-03T20:06:39.423Z,96818.38
2023-02-03T20:09:07.521Z,96819.44
2023-02-03T20:11:35.539Z,96812.48
2023-02-03T20:14:03.545Z,96807.20
2023-02-03T20:16:31.710Z,96801.84
2023-02-03T20:19:01.542Z,96798.90
2023-02-03T20:21:30.114Z,96791.55
2023-02-03T20:23:58.722Z,96786.54
2023-02-03T20:26:26.639Z,96785.11
2023-02-03T20:28:54.663Z,96781.06
2023-02-03T20:31:22.692Z,96775.80
2023-02-03T20:33:52.329Z,96773.71
2023-02-03T20:36:20.610Z,96771.86
2023-02-03T20:38:49.287Z,96768.50
2023-02-03T20:41:19.251Z,96761.68
2023-02-03T20:43:50.064Z,96754.44
2023-02-03T20:46:19.434Z,96754.08
2023-02-03T20:48:47.297Z,96750.93
2023-02-03T20:51:18.163Z,96748.23
2023-02-03T20:53:46.532Z,96743.12
2023-02-03T20:56:18.197Z,96746.25
2023-02-03T20:58:47.119Z,96740.55
2023-02-03T21:01:18.302Z,96732.79
2023-02-03T21:04:06.071Z,96726.77
2023-02-03T21:06:34.945Z,96726.23
2023-02-03T21:09:14.765Z,96722.55
2023-02-03T21:11:43.600Z,96715.70
2023-02-03T21:14:36.096Z,96713.79
2023-02-03T21:17:14.624Z,96709.15
2023-02-03T21:19:42.845Z,96707.07
2023-02-03T21:22:24.067Z,96701.86
2023-02-03T21:24:54.915Z,96701.00
2023-02-03T21:27:34.701Z,96698.40
2023-02-03T21:30:33.225Z,96699.09
2023-02-03T21:33:15.798Z,96693.60
2023-02-03T21:35:43.872Z,96689.30
2023-02-03T21:38:21.049Z,96689.71
2023-02-03T21:40:48.951Z,96682.38
2023-02-03T21:43:18.254Z,96680.88
2023-02-03T21:45:46.301Z,96679.07
2023-02-03T21:48:40.786Z,96674.98
2023-02-03T21:51:26.631Z,96671.95
2023-02-03T21:54:00.817Z,96671.58
2023-02-03T21:56:40.799Z,96666.30
2023-02-03T21:59:33.316Z,96661.04
2023-02-03T22:02:02.501Z,96651.56
2023-02-03T22:04:31.785Z,96651.41
2023-02-03T22:06:59.656Z,96652.00
2023-02-03T22:09:27.704Z,96652.17
2023-02-03T22:11:56.102Z,96649.61
2023-02-03T22:14:24.060Z,96652.10
2023-02-03T22:16:52.086Z,96650.60
2023-02-03T22:19:20.099Z,96648.91
2023-02-03T22:21:50.960Z,96637.15
2023-02-03T22:24:18.919Z,96642.30
2023-02-03T22:26:46.892Z,96645.23
2023-02-03T22:29:14.818Z,96636.02
2023-02-03T22:31:43.430Z,96635.07
2023-02-03T22:34:11.514Z,96633.63
2023-02-03T22:36:39.430Z,96633.79
2023-02-03T22:39:07.657Z,96634.48
2023-02-03T22:41:35.629Z,96634.27
2023-02-03T22:44:03.693Z,96631.73
2023-02-03T22:46:31.770Z,96624.10
2023-02-03T22:48:59.745Z,96625.75
2023-02-03T22:51:27.817Z,96624.30
2023-02-03T22:53:55.678Z,96623.17
2023-02-03T22:56:23.834Z,96624.55
2023-02-03T22:58:51.930Z,96623.29
2023-02-03T23:01:19.839Z,96616.95
2023-02-03T23:03:48.135Z,96617.15
2023-02-03T23:06:16.140Z,96613.16
2023-02-03T23:08:44.075Z,96610.54
2023-02-03T23:11:11.975Z,96611.39
2023-02-03T23:13:40.050Z,96613.45
2023-02-03T23:16:08.124Z,96617.12
2023-02-03T23:18:36.145Z,96615.52
2023-02-03T23:21:04.136Z,96612.16
2023-02-03T23:23:32.256Z,96609.66
2023-02-03T23:26:00.165Z,96605.86
2023-02-03T23:28:28.277Z,96608.15
2023-02-03T23:30:56.427Z,96606.83
2023-02-03T23:33:24.424Z,96606.04
2023-02-03T23:35:53.102Z,96605.44
2023-02-03T23:38:22.005Z,96602.18
2023-02-03T23:40:49.901Z,96601.06
2023-02-03T23:43:17.943Z,96600.21
2023-02-03T23:45:46.017Z,96599.15
2023-02-03T23:48:14.089Z,96598.84
2023-02-03T23:50:42.211Z,96597.24
2023-02-03T23:53:10.757Z,96597.36
2023-02-03T23:55:38.717Z,96596.73
2023-02-03T23:58:06.777Z,96595.07
